sensor_id;sensor_type;location;lat;lon;timestamp;P1;durP1;ratioP1;P2;durP2;ratioP2
11865;SDS011;5992;52.744;6.898;2023-03-23T00:03:02;3.45;;;3.00;;
11865;SDS011;5992;52.744;6.898;2023-03-23T00:06:01;3.40;;;2.70;;
11865;SDS011;5992;52.744;6.898;2023-03-23T00:09:02;5.50;;;2.73;;
11865;SDS011;5992;52.744;6.898;2023-03-23T00:12:14;4.53;;;3.07;;
11865;SDS011;5992;52.744;6.898;2023-03-23T00:15:17;5.05;;;3.10;;
11865;SDS011;5992;52.744;6.898;2023-03-23T00:18:05;3.73;;;3.43;;
11865;SDS011;5992;52.744;6.898;2023-03-23T00:21:21;3.30;;;2.77;;
11865;SDS011;5992;52.744;6.898;2023-03-23T00:24:20;6.67;;;3.00;;
11865;SDS011;5992;52.744;6.898;2023-03-23T00:27:20;6.20;;;2.90;;
11865;SDS011;5992;52.744;6.898;2023-03-23T00:30:19;3.93;;;2.67;;
11865;SDS011;5992;52.744;6.898;2023-03-23T00:33:20;6.00;;;2.77;;
11865;SDS011;5992;52.744;6.898;2023-03-23T00:36:20;3.87;;;3.00;;
11865;SDS011;5992;52.744;6.898;2023-03-23T00:39:20;3.25;;;2.80;;
11865;SDS011;5992;52.744;6.898;2023-03-23T00:42:00;4.90;;;2.87;;
11865;SDS011;5992;52.744;6.898;2023-03-23T00:45:00;3.50;;;3.07;;
11865;SDS011;5992;52.744;6.898;2023-03-23T00:47:59;4.80;;;2.90;;
11865;SDS011;5992;52.744;6.898;2023-03-23T00:51:01;2.90;;;2.70;;
11865;SDS011;5992;52.744;6.898;2023-03-23T00:54:11;5.30;;;2.80;;
11865;SDS011;5992;52.744;6.898;2023-03-23T00:57:23;4.95;;;2.95;;
11865;SDS011;5992;52.744;6.898;2023-03-23T01:00:23;6.37;;;3.23;;
11865;SDS011;5992;52.744;6.898;2023-03-23T01:03:23;6.00;;;2.73;;
11865;SDS011;5992;52.744;6.898;2023-03-23T01:06:24;5.47;;;2.50;;
11865;SDS011;5992;52.744;6.898;2023-03-23T01:09:35;3.45;;;2.80;;
11865;SDS011;5992;52.744;6.898;2023-03-23T01:12:34;2.80;;;2.50;;
11865;SDS011;5992;52.744;6.898;2023-03-23T01:15:34;3.03;;;2.40;;
11865;SDS011;5992;52.744;6.898;2023-03-23T01:18:25;2.85;;;2.65;;
11865;SDS011;5992;52.744;6.898;2023-03-23T01:21:33;2.50;;;2.30;;
11865;SDS011;5992;52.744;6.898;2023-03-23T01:24:35;5.65;;;2.80;;
11865;SDS011;5992;52.744;6.898;2023-03-23T01:27:35;2.57;;;2.37;;
11865;SDS011;5992;52.744;6.898;2023-03-23T01:30:34;2.70;;;2.50;;
11865;SDS011;5992;52.744;6.898;2023-03-23T01:33:47;3.33;;;2.60;;
11865;SDS011;5992;52.744;6.898;2023-03-23T01:37:00;2.80;;;2.50;;
11865;SDS011;5992;52.744;6.898;2023-03-23T01:40:13;2.80;;;2.60;;
11865;SDS011;5992;52.744;6.898;2023-03-23T01:43:23;4.77;;;2.60;;
11865;SDS011;5992;52.744;6.898;2023-03-23T01:46:25;2.63;;;2.43;;
11865;SDS011;5992;52.744;6.898;2023-03-23T01:49:43;2.50;;;2.30;;
11865;SDS011;5992;52.744;6.898;2023-03-23T01:52:59;4.53;;;2.40;;
11865;SDS011;5992;52.744;6.898;2023-03-23T01:55:58;2.95;;;2.55;;
11865;SDS011;5992;52.744;6.898;2023-03-23T01:59:14;3.30;;;2.30;;
11865;SDS011;5992;52.744;6.898;2023-03-23T02:02:17;3.00;;;2.30;;
11865;SDS011;5992;52.744;6.898;2023-03-23T02:05:30;4.17;;;2.63;;
11865;SDS011;5992;52.744;6.898;2023-03-23T02:11:43;3.03;;;2.07;;
11865;SDS011;5992;52.744;6.898;2023-03-23T02:14:57;3.90;;;2.50;;
11865;SDS011;5992;52.744;6.898;2023-03-23T02:17:58;4.07;;;2.30;;
11865;SDS011;5992;52.744;6.898;2023-03-23T02:21:04;2.50;;;2.33;;
11865;SDS011;5992;52.744;6.898;2023-03-23T02:24:27;2.87;;;2.63;;
11865;SDS011;5992;52.744;6.898;2023-03-23T02:30:50;4.83;;;2.40;;
11865;SDS011;5992;52.744;6.898;2023-03-23T02:36:57;3.63;;;2.60;;
11865;SDS011;5992;52.744;6.898;2023-03-23T02:40:14;4.97;;;2.43;;
11865;SDS011;5992;52.744;6.898;2023-03-23T02:43:25;3.40;;;2.20;;
11865;SDS011;5992;52.744;6.898;2023-03-23T02:52:33;2.30;;;2.10;;
11865;SDS011;5992;52.744;6.898;2023-03-23T02:55:44;2.20;;;2.00;;
11865;SDS011;5992;52.744;6.898;2023-03-23T02:58:56;2.30;;;2.20;;
11865;SDS011;5992;52.744;6.898;2023-03-23T03:02:07;5.50;;;2.40;;
11865;SDS011;5992;52.744;6.898;2023-03-23T03:05:22;3.00;;;2.43;;
11865;SDS011;5992;52.744;6.898;2023-03-23T03:08:24;6.03;;;2.43;;
11865;SDS011;5992;52.744;6.898;2023-03-23T03:11:36;2.30;;;2.10;;
11865;SDS011;5992;52.744;6.898;2023-03-23T03:14:36;2.93;;;2.30;;
11865;SDS011;5992;52.744;6.898;2023-03-23T03:17:47;2.37;;;2.17;;
11865;SDS011;5992;52.744;6.898;2023-03-23T03:20:46;5.10;;;2.10;;
11865;SDS011;5992;52.744;6.898;2023-03-23T03:24:00;2.77;;;2.20;;
11865;SDS011;5992;52.744;6.898;2023-03-23T03:27:11;3.77;;;2.40;;
11865;SDS011;5992;52.744;6.898;2023-03-23T03:30:24;3.30;;;1.90;;
11865;SDS011;5992;52.744;6.898;2023-03-23T03:33:34;4.00;;;2.50;;
11865;SDS011;5992;52.744;6.898;2023-03-23T03:36:47;3.17;;;2.40;;
11865;SDS011;5992;52.744;6.898;2023-03-23T03:39:59;3.43;;;2.20;;
11865;SDS011;5992;52.744;6.898;2023-03-23T03:43:12;6.63;;;2.20;;
11865;SDS011;5992;52.744;6.898;2023-03-23T03:46:12;3.30;;;1.90;;
11865;SDS011;5992;52.744;6.898;2023-03-23T03:49:24;5.30;;;2.20;;
11865;SDS011;5992;52.744;6.898;2023-03-23T03:52:11;2.40;;;2.20;;
11865;SDS011;5992;52.744;6.898;2023-03-23T03:55:11;2.20;;;2.00;;
11865;SDS011;5992;52.744;6.898;2023-03-23T03:58:26;2.40;;;2.20;;
11865;SDS011;5992;52.744;6.898;2023-03-23T04:01:31;3.40;;;2.07;;
11865;SDS011;5992;52.744;6.898;2023-03-23T04:04:34;4.43;;;2.20;;
11865;SDS011;5992;52.744;6.898;2023-03-23T04:07:21;2.83;;;2.20;;
11865;SDS011;5992;52.744;6.898;2023-03-23T04:10:22;2.53;;;2.20;;
11865;SDS011;5992;52.744;6.898;2023-03-23T04:13:34;3.80;;;2.53;;
11865;SDS011;5992;52.744;6.898;2023-03-23T04:16:34;4.97;;;2.80;;
11865;SDS011;5992;52.744;6.898;2023-03-23T04:19:33;2.75;;;2.45;;
11865;SDS011;5992;52.744;6.898;2023-03-23T04:22:32;3.10;;;2.50;;
11865;SDS011;5992;52.744;6.898;2023-03-23T04:25:44;2.47;;;2.10;;
11865;SDS011;5992;52.744;6.898;2023-03-23T04:28:57;3.73;;;2.30;;
11865;SDS011;5992;52.744;6.898;2023-03-23T04:31:56;4.95;;;2.50;;
11865;SDS011;5992;52.744;6.898;2023-03-23T04:34:56;4.03;;;2.27;;
11865;SDS011;5992;52.744;6.898;2023-03-23T04:38:07;3.17;;;2.60;;
11865;SDS011;5992;52.744;6.898;2023-03-23T04:41:21;2.63;;;2.43;;
11865;SDS011;5992;52.744;6.898;2023-03-23T04:44:33;4.03;;;2.20;;
11865;SDS011;5992;52.744;6.898;2023-03-23T04:47:34;2.97;;;2.37;;
11865;SDS011;5992;52.744;6.898;2023-03-23T04:50:44;10.07;;;2.80;;
11865;SDS011;5992;52.744;6.898;2023-03-23T04:53:44;2.20;;;2.10;;
11865;SDS011;5992;52.744;6.898;2023-03-23T04:56:44;2.90;;;2.60;;
11865;SDS011;5992;52.744;6.898;2023-03-23T04:59:58;3.00;;;1.95;;
11865;SDS011;5992;52.744;6.898;2023-03-23T05:03:12;3.10;;;2.30;;
11865;SDS011;5992;52.744;6.898;2023-03-23T05:06:12;3.70;;;2.73;;
11865;SDS011;5992;52.744;6.898;2023-03-23T05:09:11;5.33;;;2.33;;
11865;SDS011;5992;52.744;6.898;2023-03-23T05:12:13;2.70;;;2.50;;
11865;SDS011;5992;52.744;6.898;2023-03-23T05:15:25;2.65;;;2.20;;
11865;SDS011;5992;52.744;6.898;2023-03-23T05:18:25;5.37;;;2.00;;
11865;SDS011;5992;52.744;6.898;2023-03-23T05:21:25;5.30;;;2.55;;
11865;SDS011;5992;52.744;6.898;2023-03-23T05:24:26;5.65;;;2.75;;
11865;SDS011;5992;52.744;6.898;2023-03-23T05:27:26;2.25;;;1.90;;
11865;SDS011;5992;52.744;6.898;2023-03-23T05:30:39;3.50;;;2.00;;
11865;SDS011;5992;52.744;6.898;2023-03-23T05:33:50;2.63;;;2.00;;
11865;SDS011;5992;52.744;6.898;2023-03-23T05:39:55;5.05;;;2.70;;
11865;SDS011;5992;52.744;6.898;2023-03-23T05:42:56;3.23;;;2.27;;
11865;SDS011;5992;52.744;6.898;2023-03-23T05:46:14;5.27;;;2.07;;
11865;SDS011;5992;52.744;6.898;2023-03-23T05:49:17;5.43;;;2.00;;
11865;SDS011;5992;52.744;6.898;2023-03-23T05:52:16;1.30;;;1.20;;
11865;SDS011;5992;52.744;6.898;2023-03-23T05:55:16;2.37;;;1.67;;
11865;SDS011;5992;52.744;6.898;2023-03-23T05:58:28;3.90;;;1.90;;
11865;SDS011;5992;52.744;6.898;2023-03-23T06:04:56;2.13;;;1.63;;
11865;SDS011;5992;52.744;6.898;2023-03-23T06:07:57;3.10;;;1.27;;
11865;SDS011;5992;52.744;6.898;2023-03-23T06:11:13;2.83;;;1.60;;
11865;SDS011;5992;52.744;6.898;2023-03-23T06:14:30;1.50;;;1.40;;
11865;SDS011;5992;52.744;6.898;2023-03-23T06:17:48;3.00;;;1.70;;
11865;SDS011;5992;52.744;6.898;2023-03-23T06:20:51;2.50;;;1.50;;
11865;SDS011;5992;52.744;6.898;2023-03-23T06:27:07;3.27;;;1.53;;
11865;SDS011;5992;52.744;6.898;2023-03-23T06:30:10;6.23;;;1.90;;
11865;SDS011;5992;52.744;6.898;2023-03-23T06:33:21;3.85;;;1.20;;
11865;SDS011;5992;52.744;6.898;2023-03-23T06:36:21;2.37;;;1.17;;
11865;SDS011;5992;52.744;6.898;2023-03-23T06:39:20;1.90;;;1.20;;
11865;SDS011;5992;52.744;6.898;2023-03-23T06:42:23;4.30;;;1.63;;
11865;SDS011;5992;52.744;6.898;2023-03-23T06:45:29;2.97;;;1.60;;
11865;SDS011;5992;52.744;6.898;2023-03-23T06:48:41;6.77;;;1.43;;
11865;SDS011;5992;52.744;6.898;2023-03-23T06:51:53;6.87;;;1.53;;
11865;SDS011;5992;52.744;6.898;2023-03-23T06:54:54;1.40;;;1.03;;
11865;SDS011;5992;52.744;6.898;2023-03-23T06:57:53;2.53;;;1.20;;
11865;SDS011;5992;52.744;6.898;2023-03-23T07:00:55;3.30;;;1.73;;
11865;SDS011;5992;52.744;6.898;2023-03-23T07:04:07;5.97;;;2.30;;
11865;SDS011;5992;52.744;6.898;2023-03-23T07:07:08;5.20;;;1.73;;
11865;SDS011;5992;52.744;6.898;2023-03-23T07:10:21;2.33;;;1.60;;
11865;SDS011;5992;52.744;6.898;2023-03-23T07:13:21;4.97;;;1.87;;
11865;SDS011;5992;52.744;6.898;2023-03-23T07:16:22;4.60;;;1.65;;
11865;SDS011;5992;52.744;6.898;2023-03-23T07:19:34;3.67;;;1.90;;
11865;SDS011;5992;52.744;6.898;2023-03-23T07:22:34;3.30;;;1.45;;
11865;SDS011;5992;52.744;6.898;2023-03-23T07:25:46;5.47;;;2.13;;
11865;SDS011;5992;52.744;6.898;2023-03-23T07:28:45;4.95;;;2.35;;
11865;SDS011;5992;52.744;6.898;2023-03-23T07:31:47;5.95;;;1.80;;
11865;SDS011;5992;52.744;6.898;2023-03-23T07:34:58;2.53;;;1.50;;
11865;SDS011;5992;52.744;6.898;2023-03-23T07:37:58;5.25;;;1.70;;
11865;SDS011;5992;52.744;6.898;2023-03-23T07:44:10;5.03;;;1.70;;
11865;SDS011;5992;52.744;6.898;2023-03-23T07:47:24;3.37;;;1.70;;
11865;SDS011;5992;52.744;6.898;2023-03-23T07:50:36;2.23;;;1.30;;
11865;SDS011;5992;52.744;6.898;2023-03-23T07:53:35;3.50;;;1.67;;
11865;SDS011;5992;52.744;6.898;2023-03-23T07:56:36;6.63;;;1.60;;
11865;SDS011;5992;52.744;6.898;2023-03-23T07:59:46;3.43;;;2.00;;
11865;SDS011;5992;52.744;6.898;2023-03-23T08:02:48;5.20;;;2.10;;
11865;SDS011;5992;52.744;6.898;2023-03-23T08:06:05;6.57;;;1.73;;
11865;SDS011;5992;52.744;6.898;2023-03-23T08:09:07;4.30;;;1.77;;
11865;SDS011;5992;52.744;6.898;2023-03-23T08:12:13;8.10;;;2.65;;
11865;SDS011;5992;52.744;6.898;2023-03-23T08:18:37;8.20;;;2.17;;
11865;SDS011;5992;52.744;6.898;2023-03-23T08:21:53;7.00;;;1.80;;
11865;SDS011;5992;52.744;6.898;2023-03-23T08:25:06;5.20;;;1.97;;
11865;SDS011;5992;52.744;6.898;2023-03-23T08:28:18;6.73;;;2.13;;
11865;SDS011;5992;52.744;6.898;2023-03-23T08:31:21;5.25;;;1.90;;
11865;SDS011;5992;52.744;6.898;2023-03-23T08:34:21;6.50;;;2.30;;
11865;SDS011;5992;52.744;6.898;2023-03-23T08:37:34;12.43;;;2.73;;
11865;SDS011;5992;52.744;6.898;2023-03-23T08:40:46;6.30;;;2.00;;
11865;SDS011;5992;52.744;6.898;2023-03-23T08:43:49;3.33;;;1.60;;
11865;SDS011;5992;52.744;6.898;2023-03-23T08:46:49;2.57;;;1.80;;
11865;SDS011;5992;52.744;6.898;2023-03-23T08:49:51;7.63;;;2.30;;
11865;SDS011;5992;52.744;6.898;2023-03-23T08:56:07;3.80;;;1.90;;
11865;SDS011;5992;52.744;6.898;2023-03-23T08:59:19;5.60;;;2.30;;
11865;SDS011;5992;52.744;6.898;2023-03-23T09:02:23;4.85;;;1.80;;
11865;SDS011;5992;52.744;6.898;2023-03-23T09:05:25;4.57;;;1.90;;
11865;SDS011;5992;52.744;6.898;2023-03-23T09:08:40;5.50;;;2.33;;
11865;SDS011;5992;52.744;6.898;2023-03-23T09:11:30;8.50;;;2.47;;
11865;SDS011;5992;52.744;6.898;2023-03-23T09:14:30;8.40;;;2.20;;
11865;SDS011;5992;52.744;6.898;2023-03-23T09:17:17;3.33;;;2.17;;
11865;SDS011;5992;52.744;6.898;2023-03-23T09:20:17;6.55;;;2.30;;
11865;SDS011;5992;52.744;6.898;2023-03-23T09:23:20;5.50;;;2.85;;
11865;SDS011;5992;52.744;6.898;2023-03-23T09:26:34;8.93;;;2.80;;
11865;SDS011;5992;52.744;6.898;2023-03-23T09:29:22;2.97;;;2.17;;
11865;SDS011;5992;52.744;6.898;2023-03-23T09:32:22;10.95;;;3.10;;
11865;SDS011;5992;52.744;6.898;2023-03-23T09:35:09;3.53;;;2.47;;
11865;SDS011;5992;52.744;6.898;2023-03-23T09:38:22;7.17;;;2.43;;
11865;SDS011;5992;52.744;6.898;2023-03-23T09:41:33;7.30;;;2.50;;
11865;SDS011;5992;52.744;6.898;2023-03-23T09:44:44;5.80;;;2.30;;
11865;SDS011;5992;52.744;6.898;2023-03-23T09:47:45;5.60;;;2.20;;
11865;SDS011;5992;52.744;6.898;2023-03-23T09:50:59;4.90;;;2.30;;
11865;SDS011;5992;52.744;6.898;2023-03-23T09:53:58;6.43;;;2.30;;
11865;SDS011;5992;52.744;6.898;2023-03-23T09:57:11;5.97;;;2.07;;
11865;SDS011;5992;52.744;6.898;2023-03-23T10:00:11;6.17;;;2.23;;
11865;SDS011;5992;52.744;6.898;2023-03-23T10:03:25;4.65;;;1.90;;
11865;SDS011;5992;52.744;6.898;2023-03-23T10:06:22;2.80;;;1.80;;
11865;SDS011;5992;52.744;6.898;2023-03-23T10:09:23;3.43;;;1.83;;
11865;SDS011;5992;52.744;6.898;2023-03-23T10:12:25;5.50;;;2.20;;
11865;SDS011;5992;52.744;6.898;2023-03-23T10:15:36;3.95;;;2.20;;
11865;SDS011;5992;52.744;6.898;2023-03-23T10:18:36;3.70;;;2.23;;
11865;SDS011;5992;52.744;6.898;2023-03-23T10:21:50;4.70;;;1.87;;
11865;SDS011;5992;52.744;6.898;2023-03-23T10:24:50;5.13;;;2.00;;
11865;SDS011;5992;52.744;6.898;2023-03-23T10:28:06;7.47;;;2.07;;
11865;SDS011;5992;52.744;6.898;2023-03-23T10:31:08;3.03;;;1.63;;
11865;SDS011;5992;52.744;6.898;2023-03-23T10:34:22;5.87;;;2.63;;
11865;SDS011;5992;52.744;6.898;2023-03-23T10:37:20;3.43;;;1.87;;
11865;SDS011;5992;52.744;6.898;2023-03-23T10:40:32;5.50;;;2.13;;
11865;SDS011;5992;52.744;6.898;2023-03-23T10:43:35;8.63;;;2.20;;
11865;SDS011;5992;52.744;6.898;2023-03-23T10:46:41;3.67;;;1.50;;
11865;SDS011;5992;52.744;6.898;2023-03-23T10:49:41;6.73;;;1.80;;
11865;SDS011;5992;52.744;6.898;2023-03-23T10:52:50;3.17;;;1.50;;
11865;SDS011;5992;52.744;6.898;2023-03-23T10:55:50;7.27;;;1.97;;
11865;SDS011;5992;52.744;6.898;2023-03-23T10:59:13;3.97;;;1.73;;
11865;SDS011;5992;52.744;6.898;2023-03-23T11:02:14;7.13;;;2.30;;
11865;SDS011;5992;52.744;6.898;2023-03-23T11:05:25;3.47;;;1.67;;
11865;SDS011;5992;52.744;6.898;2023-03-23T11:08:24;5.87;;;1.43;;
11865;SDS011;5992;52.744;6.898;2023-03-23T11:17:32;6.67;;;1.83;;
11865;SDS011;5992;52.744;6.898;2023-03-23T11:20:34;5.30;;;1.70;;
11865;SDS011;5992;52.744;6.898;2023-03-23T11:23:47;2.10;;;1.50;;
11865;SDS011;5992;52.744;6.898;2023-03-23T11:26:50;6.47;;;1.83;;
11865;SDS011;5992;52.744;6.898;2023-03-23T11:30:08;3.93;;;1.60;;
11865;SDS011;5992;52.744;6.898;2023-03-23T11:33:08;3.73;;;1.87;;
11865;SDS011;5992;52.744;6.898;2023-03-23T11:36:20;6.27;;;2.20;;
11865;SDS011;5992;52.744;6.898;2023-03-23T11:39:20;2.43;;;1.47;;
11865;SDS011;5992;52.744;6.898;2023-03-23T11:42:34;4.67;;;1.77;;
11865;SDS011;5992;52.744;6.898;2023-03-23T11:45:34;6.17;;;1.73;;
11865;SDS011;5992;52.744;6.898;2023-03-23T11:48:49;3.90;;;1.70;;
11865;SDS011;5992;52.744;6.898;2023-03-23T11:51:47;7.10;;;2.20;;
11865;SDS011;5992;52.744;6.898;2023-03-23T11:55:03;3.50;;;1.53;;
11865;SDS011;5992;52.744;6.898;2023-03-23T11:58:01;6.20;;;1.90;;
11865;SDS011;5992;52.744;6.898;2023-03-23T12:01:16;3.43;;;2.07;;
11865;SDS011;5992;52.744;6.898;2023-03-23T12:04:37;7.27;;;1.87;;
11865;SDS011;5992;52.744;6.898;2023-03-23T12:07:40;6.85;;;1.90;;
11865;SDS011;5992;52.744;6.898;2023-03-23T12:13:59;4.35;;;1.60;;
11865;SDS011;5992;52.744;6.898;2023-03-23T12:17:13;6.37;;;1.80;;
11865;SDS011;5992;52.744;6.898;2023-03-23T12:20:19;3.93;;;1.70;;
11865;SDS011;5992;52.744;6.898;2023-03-23T12:23:32;6.40;;;1.70;;
11865;SDS011;5992;52.744;6.898;2023-03-23T12:26:30;3.40;;;1.60;;
11865;SDS011;5992;52.744;6.898;2023-03-23T12:29:47;4.13;;;1.77;;
11865;SDS011;5992;52.744;6.898;2023-03-23T12:32:56;7.00;;;2.00;;
11865;SDS011;5992;52.744;6.898;2023-03-23T12:39:02;6.23;;;2.10;;
11865;SDS011;5992;52.744;6.898;2023-03-23T12:45:17;8.53;;;2.20;;
11865;SDS011;5992;52.744;6.898;2023-03-23T12:48:32;2.77;;;1.37;;
11865;SDS011;5992;52.744;6.898;2023-03-23T12:51:35;3.35;;;1.90;;
11865;SDS011;5992;52.744;6.898;2023-03-23T12:54:48;3.97;;;1.50;;
11865;SDS011;5992;52.744;6.898;2023-03-23T12:57:48;4.05;;;2.00;;
11865;SDS011;5992;52.744;6.898;2023-03-23T13:01:00;3.83;;;1.70;;
11865;SDS011;5992;52.744;6.898;2023-03-23T13:03:59;5.67;;;1.70;;
11865;SDS011;5992;52.744;6.898;2023-03-23T13:07:12;7.70;;;1.87;;
11865;SDS011;5992;52.744;6.898;2023-03-23T13:10:15;3.50;;;1.80;;
11865;SDS011;5992;52.744;6.898;2023-03-23T13:13:39;9.27;;;2.27;;
11865;SDS011;5992;52.744;6.898;2023-03-23T13:16:27;4.30;;;1.60;;
11865;SDS011;5992;52.744;6.898;2023-03-23T13:19:41;8.47;;;1.97;;
11865;SDS011;5992;52.744;6.898;2023-03-23T13:22:43;7.47;;;2.57;;
11865;SDS011;5992;52.744;6.898;2023-03-23T13:25:59;5.00;;;1.60;;
11865;SDS011;5992;52.744;6.898;2023-03-23T13:28:57;7.17;;;2.20;;
11865;SDS011;5992;52.744;6.898;2023-03-23T13:32:11;4.53;;;1.50;;
11865;SDS011;5992;52.744;6.898;2023-03-23T13:35:11;3.63;;;1.63;;
11865;SDS011;5992;52.744;6.898;2023-03-23T13:38:24;7.33;;;1.60;;
11865;SDS011;5992;52.744;6.898;2023-03-23T13:41:23;5.23;;;1.97;;
11865;SDS011;5992;52.744;6.898;2023-03-23T13:44:40;5.07;;;1.67;;
11865;SDS011;5992;52.744;6.898;2023-03-23T13:47:39;5.05;;;1.70;;
11865;SDS011;5992;52.744;6.898;2023-03-23T13:50:52;5.85;;;2.40;;
11865;SDS011;5992;52.744;6.898;2023-03-23T13:53:51;5.07;;;2.00;;
11865;SDS011;5992;52.744;6.898;2023-03-23T14:00:31;10.00;;;2.20;;
11865;SDS011;5992;52.744;6.898;2023-03-23T14:03:35;3.35;;;1.40;;
11865;SDS011;5992;52.744;6.898;2023-03-23T14:06:34;5.43;;;2.53;;
11865;SDS011;5992;52.744;6.898;2023-03-23T14:12:39;7.83;;;2.13;;
11865;SDS011;5992;52.744;6.898;2023-03-23T14:15:44;4.20;;;1.83;;
11865;SDS011;5992;52.744;6.898;2023-03-23T14:18:48;6.40;;;1.70;;
11865;SDS011;5992;52.744;6.898;2023-03-23T14:22:00;3.77;;;1.70;;
11865;SDS011;5992;52.744;6.898;2023-03-23T14:24:59;5.47;;;1.83;;
11865;SDS011;5992;52.744;6.898;2023-03-23T14:28:17;6.60;;;2.60;;
11865;SDS011;5992;52.744;6.898;2023-03-23T14:31:19;4.40;;;1.83;;
11865;SDS011;5992;52.744;6.898;2023-03-23T14:34:34;4.07;;;1.57;;
11865;SDS011;5992;52.744;6.898;2023-03-23T14:37:33;4.20;;;1.50;;
11865;SDS011;5992;52.744;6.898;2023-03-23T14:40:45;4.63;;;1.63;;
11865;SDS011;5992;52.744;6.898;2023-03-23T14:43:47;3.97;;;1.60;;
11865;SDS011;5992;52.744;6.898;2023-03-23T14:47:15;2.50;;;1.33;;
11865;SDS011;5992;52.744;6.898;2023-03-23T14:50:22;5.80;;;1.80;;
11865;SDS011;5992;52.744;6.898;2023-03-23T14:53:35;6.15;;;2.00;;
11865;SDS011;5992;52.744;6.898;2023-03-23T14:59:43;2.63;;;1.43;;
11865;SDS011;5992;52.744;6.898;2023-03-23T15:05:53;4.85;;;1.60;;
11865;SDS011;5992;52.744;6.898;2023-03-23T15:08:56;6.50;;;1.77;;
11865;SDS011;5992;52.744;6.898;2023-03-23T15:15:07;3.87;;;1.30;;
11865;SDS011;5992;52.744;6.898;2023-03-23T15:18:32;4.33;;;1.43;;
11865;SDS011;5992;52.744;6.898;2023-03-23T15:21:33;4.47;;;1.60;;
11865;SDS011;5992;52.744;6.898;2023-03-23T15:24:45;3.80;;;1.43;;
11865;SDS011;5992;52.744;6.898;2023-03-23T15:27:44;4.10;;;1.45;;
11865;SDS011;5992;52.744;6.898;2023-03-23T15:30:57;3.50;;;1.60;;
11865;SDS011;5992;52.744;6.898;2023-03-23T15:37:01;3.40;;;1.70;;
11865;SDS011;5992;52.744;6.898;2023-03-23T15:40:00;3.27;;;1.83;;
11865;SDS011;5992;52.744;6.898;2023-03-23T15:43:16;1.97;;;1.47;;
11865;SDS011;5992;52.744;6.898;2023-03-23T15:49:18;5.23;;;1.60;;
11865;SDS011;5992;52.744;6.898;2023-03-23T15:55:35;3.60;;;1.50;;
11865;SDS011;5992;52.744;6.898;2023-03-23T15:58:43;1.70;;;1.20;;
11865;SDS011;5992;52.744;6.898;2023-03-23T16:01:55;1.50;;;1.10;;
11865;SDS011;5992;52.744;6.898;2023-03-23T16:05:19;6.43;;;1.50;;
11865;SDS011;5992;52.744;6.898;2023-03-23T16:11:24;4.50;;;1.70;;
11865;SDS011;5992;52.744;6.898;2023-03-23T16:14:49;5.80;;;1.73;;
11865;SDS011;5992;52.744;6.898;2023-03-23T16:17:49;3.87;;;1.87;;
11865;SDS011;5992;52.744;6.898;2023-03-23T16:21:04;6.43;;;1.60;;
11865;SDS011;5992;52.744;6.898;2023-03-23T16:24:05;2.57;;;1.30;;
11865;SDS011;5992;52.744;6.898;2023-03-23T16:27:19;5.20;;;1.73;;
11865;SDS011;5992;52.744;6.898;2023-03-23T16:30:32;4.40;;;1.40;;
11865;SDS011;5992;52.744;6.898;2023-03-23T16:33:56;3.77;;;1.97;;
11865;SDS011;5992;52.744;6.898;2023-03-23T16:36:56;4.90;;;1.80;;
11865;SDS011;5992;52.744;6.898;2023-03-23T16:40:09;3.75;;;1.60;;
11865;SDS011;5992;52.744;6.898;2023-03-23T16:43:22;3.70;;;1.50;;
11865;SDS011;5992;52.744;6.898;2023-03-23T16:46:47;3.27;;;1.40;;
11865;SDS011;5992;52.744;6.898;2023-03-23T16:49:47;3.40;;;1.57;;
11865;SDS011;5992;52.744;6.898;2023-03-23T16:53:11;2.77;;;1.20;;
11865;SDS011;5992;52.744;6.898;2023-03-23T16:56:23;2.60;;;1.30;;
11865;SDS011;5992;52.744;6.898;2023-03-23T16:59:50;2.93;;;1.30;;
11865;SDS011;5992;52.744;6.898;2023-03-23T17:03:03;2.85;;;1.40;;
11865;SDS011;5992;52.744;6.898;2023-03-23T17:06:15;2.37;;;1.20;;
11865;SDS011;5992;52.744;6.898;2023-03-23T17:09:15;1.37;;;0.90;;
11865;SDS011;5992;52.744;6.898;2023-03-23T17:12:28;2.57;;;1.23;;
11865;SDS011;5992;52.744;6.898;2023-03-23T17:18:47;4.30;;;1.55;;
11865;SDS011;5992;52.744;6.898;2023-03-23T17:21:59;2.60;;;1.30;;
11865;SDS011;5992;52.744;6.898;2023-03-23T17:25:11;1.60;;;1.27;;
11865;SDS011;5992;52.744;6.898;2023-03-23T17:28:23;2.67;;;1.43;;
11865;SDS011;5992;52.744;6.898;2023-03-23T17:31:47;1.30;;;1.20;;
11865;SDS011;5992;52.744;6.898;2023-03-23T17:35:01;1.10;;;1.00;;
11865;SDS011;5992;52.744;6.898;2023-03-23T17:38:25;1.83;;;1.10;;
11865;SDS011;5992;52.744;6.898;2023-03-23T17:41:25;4.30;;;1.33;;
11865;SDS011;5992;52.744;6.898;2023-03-23T17:47:45;3.30;;;1.40;;
11865;SDS011;5992;52.744;6.898;2023-03-23T17:51:02;1.87;;;1.53;;
11865;SDS011;5992;52.744;6.898;2023-03-23T17:54:20;3.05;;;1.45;;
11865;SDS011;5992;52.744;6.898;2023-03-23T18:03:18;3.75;;;1.50;;
11865;SDS011;5992;52.744;6.898;2023-03-23T18:06:20;1.20;;;1.10;;
11865;SDS011;5992;52.744;6.898;2023-03-23T18:09:43;2.80;;;1.03;;
11865;SDS011;5992;52.744;6.898;2023-03-23T18:12:43;3.90;;;1.83;;
11865;SDS011;5992;52.744;6.898;2023-03-23T18:16:08;3.17;;;1.40;;
11865;SDS011;5992;52.744;6.898;2023-03-23T18:19:22;5.13;;;2.23;;
11865;SDS011;5992;52.744;6.898;2023-03-23T18:22:37;2.05;;;1.25;;
11865;SDS011;5992;52.744;6.898;2023-03-23T18:25:50;1.60;;;1.07;;
11865;SDS011;5992;52.744;6.898;2023-03-23T18:29:13;1.93;;;1.20;;
11865;SDS011;5992;52.744;6.898;2023-03-23T18:32:18;4.57;;;1.50;;
11865;SDS011;5992;52.744;6.898;2023-03-23T18:35:46;3.35;;;1.40;;
11865;SDS011;5992;52.744;6.898;2023-03-23T18:39:00;3.60;;;2.03;;
11865;SDS011;5992;52.744;6.898;2023-03-23T18:42:23;3.27;;;1.50;;
11865;SDS011;5992;52.744;6.898;2023-03-23T18:45:38;5.80;;;2.10;;
11865;SDS011;5992;52.744;6.898;2023-03-23T18:48:50;3.00;;;1.83;;
11865;SDS011;5992;52.744;6.898;2023-03-23T18:52:03;3.33;;;1.70;;
11865;SDS011;5992;52.744;6.898;2023-03-23T18:55:28;6.27;;;1.77;;
11865;SDS011;5992;52.744;6.898;2023-03-23T18:58:41;6.55;;;2.40;;
11865;SDS011;5992;52.744;6.898;2023-03-23T19:02:05;4.30;;;1.80;;
11865;SDS011;5992;52.744;6.898;2023-03-23T19:05:06;5.67;;;2.37;;
11865;SDS011;5992;52.744;6.898;2023-03-23T19:08:31;6.13;;;1.73;;
11865;SDS011;5992;52.744;6.898;2023-03-23T19:11:44;3.50;;;1.87;;
11865;SDS011;5992;52.744;6.898;2023-03-23T19:15:09;4.87;;;2.03;;
11865;SDS011;5992;52.744;6.898;2023-03-23T19:18:09;3.90;;;1.70;;
11865;SDS011;5992;52.744;6.898;2023-03-23T19:21:22;4.57;;;2.03;;
11865;SDS011;5992;52.744;6.898;2023-03-23T19:24:22;3.47;;;1.87;;
11865;SDS011;5992;52.744;6.898;2023-03-23T19:27:36;6.50;;;2.10;;
11865;SDS011;5992;52.744;6.898;2023-03-23T19:34:06;3.33;;;1.83;;
11865;SDS011;5992;52.744;6.898;2023-03-23T19:40:20;2.17;;;1.97;;
11865;SDS011;5992;52.744;6.898;2023-03-23T19:43:21;3.97;;;2.10;;
11865;SDS011;5992;52.744;6.898;2023-03-23T19:46:49;3.87;;;2.20;;
11865;SDS011;5992;52.744;6.898;2023-03-23T19:49:50;4.97;;;1.93;;
11865;SDS011;5992;52.744;6.898;2023-03-23T19:53:05;2.87;;;2.20;;
11865;SDS011;5992;52.744;6.898;2023-03-23T19:56:09;4.27;;;2.43;;
11865;SDS011;5992;52.744;6.898;2023-03-23T19:59:35;2.60;;;1.97;;
11865;SDS011;5992;52.744;6.898;2023-03-23T20:03:03;3.35;;;1.90;;
11865;SDS011;5992;52.744;6.898;2023-03-23T20:06:03;4.80;;;2.00;;
11865;SDS011;5992;52.744;6.898;2023-03-23T20:09:27;3.77;;;1.93;;
11865;SDS011;5992;52.744;6.898;2023-03-23T20:12:30;6.10;;;1.87;;
11865;SDS011;5992;52.744;6.898;2023-03-23T20:15:51;4.33;;;2.20;;
11865;SDS011;5992;52.744;6.898;2023-03-23T20:19:04;4.95;;;2.20;;
11865;SDS011;5992;52.744;6.898;2023-03-23T20:22:20;5.53;;;2.63;;
11865;SDS011;5992;52.744;6.898;2023-03-23T20:25:20;2.77;;;1.80;;
11865;SDS011;5992;52.744;6.898;2023-03-23T20:28:32;2.17;;;1.73;;
11865;SDS011;5992;52.744;6.898;2023-03-23T20:31:49;4.80;;;2.13;;
11865;SDS011;5992;52.744;6.898;2023-03-23T20:35:14;3.40;;;1.93;;
11865;SDS011;5992;52.744;6.898;2023-03-23T20:38:15;4.90;;;2.15;;
11865;SDS011;5992;52.744;6.898;2023-03-23T20:41:27;4.43;;;2.43;;
11865;SDS011;5992;52.744;6.898;2023-03-23T20:44:27;4.15;;;1.95;;